createdAt,value
2023-04-04T00:01:49.661Z,101679.44
2023-04-04T00:04:16.080Z,101673.44
2023-04-04T00:06:45.568Z,101671.63
2023-04-04T00:09:12.783Z,101662.16
2023-04-04T00:11:39.203Z,101661.19
2023-04-04T00:14:05.677Z,101662.94
2023-04-04T00:16:32.686Z,101663.00
2023-04-04T00:18:59.179Z,101667.22
2023-04-04T00:21:27.404Z,101680.84
2023-04-04T00:23:54.565Z,101683.34
2023-04-04T00:26:21.796Z,101678.84
2023-04-04T00:28:48.250Z,101665.84
2023-04-04T00:31:15.045Z,101655.38
2023-04-04T00:33:41.536Z,101634.75
2023-04-04T00:36:08.803Z,101634.75
2023-04-04T00:38:35.176Z,101633.84
2023-04-04T00:41:01.552Z,101644.94
2023-04-04T00:43:27.892Z,101641.34
2023-04-04T00:45:54.370Z,101641.25
2023-04-04T00:48:21.251Z,101642.91
2023-04-04T00:50:47.805Z,101640.34
2023-04-04T00:53:14.269Z,101628.19
2023-04-04T00:55:40.683Z,101627.28
2023-04-04T00:58:07.329Z,101624.75
2023-04-04T01:00:35.581Z,101616.97
2023-04-04T01:03:02.695Z,101621.16
2023-04-04T01:05:29.200Z,101625.41
2023-04-04T01:07:56.483Z,101623.69
2023-04-04T01:10:22.840Z,101621.91
2023-04-04T01:12:49.398Z,101626.16
2023-04-04T01:15:15.940Z,101620.94
2023-04-04T01:17:43.493Z,101623.56
2023-04-04T01:20:16.293Z,101628.53
2023-04-04T01:22:43.421Z,101625.97
2023-04-04T01:25:09.831Z,101630.28
2023-04-04T01:27:36.461Z,101627.59
2023-04-04T01:30:03.304Z,101638.72
2023-04-04T01:32:51.803Z,101630.94
2023-04-04T01:35:23.184Z,101622.31
2023-04-04T01:38:05.294Z,101624.81
2023-04-04T01:40:35.486Z,101624.72
2023-04-04T01:43:01.864Z,101632.38
2023-04-04T01:45:29.633Z,101628.13
2023-04-04T01:47:57.049Z,101622.91
2023-04-04T01:50:23.554Z,101622.88
2023-04-04T01:52:50.185Z,101620.97
2023-04-04T01:55:16.623Z,101622.66
2023-04-04T01:57:43.024Z,101612.31
2023-04-04T02:00:10.101Z,101610.63
2023-04-04T02:02:36.816Z,101603.63
2023-04-04T02:05:04.119Z,101579.13
2023-04-04T02:07:30.503Z,101550.09
2023-04-04T02:09:56.961Z,101536.56
2023-04-04T02:12:23.665Z,101541.72
2023-04-04T02:14:50.046Z,101539.97
2023-04-04T02:17:16.724Z,101548.59
2023-04-04T02:19:43.081Z,101548.66
2023-04-04T02:22:09.631Z,101537.50
2023-04-04T02:24:36.000Z,101534.94
2023-04-04T02:27:02.444Z,101546.97
2023-04-04T02:29:28.988Z,101548.59
2023-04-04T02:31:55.781Z,101546.97
2023-04-04T02:34:22.132Z,101550.16
2023-04-04T02:36:48.680Z,101524.84
2023-04-04T02:39:15.168Z,101510.53
2023-04-04T02:41:41.668Z,101515.78
2023-04-04T02:44:09.949Z,101511.53
2023-04-04T02:46:36.325Z,101504.81
2023-04-04T02:49:03.655Z,101502.19
2023-04-04T02:51:30.251Z,101503.94
2023-04-04T02:53:57.211Z,101490.13
2023-04-04T02:56:23.547Z,101493.50
2023-04-04T02:58:50.136Z,101497.69
2023-04-04T03:01:16.561Z,101484.78
2023-04-04T03:03:43.094Z,101472.75
2023-04-04T03:06:09.609Z,101458.97
2023-04-04T03:08:36.316Z,101458.97
2023-04-04T03:11:02.800Z,101457.97
2023-04-04T03:13:29.413Z,101448.44
2023-04-04T03:16:06.604Z,101455.28
2023-04-04T03:18:34.822Z,101446.59
2023-04-04T03:21:01.237Z,101434.56
2023-04-04T03:23:27.568Z,101441.28
2023-04-04T03:25:55.062Z,101429.25
2023-04-04T03:28:21.647Z,101424.94
2023-04-04T03:30:48.028Z,101410.28
2023-04-04T03:33:15.198Z,101410.22
2023-04-04T03:35:41.828Z,101394.84
2023-04-04T03:38:09.296Z,101384.47
2023-04-04T03:40:35.771Z,101376.81
2023-04-04T03:43:05.018Z,101359.44
2023-04-04T03:45:34.297Z,101336.31
2023-04-04T03:48:00.777Z,101320.94
2023-04-04T03:50:27.246Z,101307.28
2023-04-04T03:52:53.614Z,101305.50
2023-04-04T03:55:20.026Z,101279.78
2023-04-04T03:57:46.429Z,101260.75
2023-04-04T04:00:13.071Z,101234.19
2023-04-04T04:02:40.313Z,101217.97
2023-04-04T04:05:07.096Z,101224.00
2023-04-04T04:07:33.603Z,101240.22
2023-04-04T04:10:00.657Z,101245.31
2023-04-04T04:12:27.134Z,101246.91
2023-04-04T04:14:53.698Z,101250.31
2023-04-04T04:17:20.094Z,101250.22
2023-04-04T04:19:46.680Z,101235.59
2023-04-04T04:22:13.030Z,101233.03
2023-04-04T04:24:39.392Z,101236.44
2023-04-04T04:27:06.849Z,101227.81
2023-04-04T04:29:33.240Z,101221.78
2023-04-04T04:31:59.806Z,101214.03
2023-04-04T04:34:26.227Z,101205.47
2023-04-04T04:36:53.776Z,101196.06
2023-04-04T04:39:20.480Z,101199.47
2023-04-04T04:41:46.980Z,101195.19
2023-04-04T04:44:13.322Z,101190.88
2023-04-04T04:46:39.711Z,101189.25
2023-04-04T04:49:06.269Z,101197.03
2023-04-04T04:51:32.796Z,101194.38
2023-04-04T04:53:59.562Z,101192.63
2023-04-04T04:56:26.208Z,101178.91
2023-04-04T04:58:52.579Z,101172.03
2023-04-04T05:01:19.018Z,101171.22
2023-04-04T05:03:45.423Z,101167.81
2023-04-04T05:06:12.330Z,101165.25
2023-04-04T05:08:38.806Z,101162.69
2023-04-04T05:11:05.655Z,101153.28
2023-04-04T05:13:32.186Z,101113.91
2023-04-04T05:15:58.729Z,101096.84
2023-04-04T05:18:26.414Z,101090.91
2023-04-04T05:20:54.016Z,101096.09
2023-04-04T05:23:20.561Z,101097.88
2023-04-04T05:25:53.242Z,101094.38
2023-04-04T05:28:21.216Z,101072.94
2023-04-04T05:30:47.582Z,101063.63
2023-04-04T05:33:13.930Z,101070.59
2023-04-04T05:35:41.345Z,101057.91
2023-04-04T05:38:07.845Z,101048.59
2023-04-04T05:40:34.191Z,101057.22
2023-04-04T05:43:02.002Z,101061.66
2023-04-04T05:45:28.377Z,101065.13
2023-04-04T05:47:54.929Z,101055.78
2023-04-04T05:50:21.517Z,101064.41
2023-04-04T05:52:47.864Z,101067.91
2023-04-04T05:55:14.241Z,101067.97
2023-04-04T05:57:50.391Z,101066.31
2023-04-04T06:00:17.871Z,101057.72
2023-04-04T06:02:44.848Z,101064.63
2023-04-04T06:05:11.506Z,101046.69
2023-04-04T06:07:37.884Z,101051.00
2023-04-04T06:10:04.963Z,101045.06
2023-04-04T06:12:31.673Z,101047.75
2023-04-04T06:14:58.039Z,101031.47
2023-04-04T06:17:24.764Z,101019.59
2023-04-04T06:19:51.521Z,101034.16
2023-04-04T06:22:17.904Z,101035.13
2023-04-04T06:24:44.270Z,101042.91
2023-04-04T06:27:10.865Z,101048.22
2023-04-04T06:29:37.332Z,101036.19
2023-04-04T06:32:05.303Z,101040.63
2023-04-04T06:34:32.089Z,101041.41
2023-04-04T06:36:58.438Z,101033.97
2023-04-04T06:39:24.795Z,101046.91
2023-04-04T06:41:51.396Z,101038.25
2023-04-04T06:44:17.761Z,101026.50
2023-04-04T06:46:44.691Z,101021.59
2023-04-04T06:49:11.662Z,101019.09
2023-04-04T06:51:38.028Z,101025.25
2023-04-04T06:54:04.408Z,101028.72
2023-04-04T06:56:31.029Z,101032.22
2023-04-04T06:58:57.483Z,101047.06
2023-04-04T07:01:23.996Z,101064.19
2023-04-04T07:03:54.016Z,101058.41
2023-04-04T07:06:24.584Z,101065.44
2023-04-04T07:08:52.280Z,101071.69
2023-04-04T07:11:19.002Z,101113.00
2023-04-04T07:13:45.339Z,101139.91
2023-04-04T07:16:12.005Z,101171.06
2023-04-04T07:18:38.551Z,101200.47
2023-04-04T07:21:05.336Z,101210.94
2023-04-04T07:23:31.881Z,101238.59
2023-04-04T07:25:58.459Z,101239.53
2023-04-04T07:28:24.817Z,101248.19
2023-04-04T07:30:51.186Z,101252.63
2023-04-04T07:33:17.592Z,101285.47
2023-04-04T07:35:44.004Z,101320.81
2023-04-04T07:38:10.439Z,101316.47
2023-04-04T07:40:37.412Z,101338.81
2023-04-04T07:43:04.161Z,101338.03
2023-04-04T07:45:30.545Z,101357.91
2023-04-04T07:47:57.207Z,101381.19
2023-04-04T07:50:23.621Z,101395.88
2023-04-04T07:52:54.370Z,101389.06
2023-04-04T07:55:20.934Z,101403.06
2023-04-04T07:57:47.541Z,101398.84
2023-04-04T08:00:14.551Z,101443.69
2023-04-04T08:02:41.127Z,101459.28
2023-04-04T08:05:08.384Z,101543.56
2023-04-04T08:07:34.737Z,101541.06
2023-04-04T08:10:01.301Z,101565.44
2023-04-04T08:12:27.827Z,101620.88
2023-04-04T08:14:54.154Z,101707.25
2023-04-04T08:17:20.950Z,101737.56
2023-04-04T08:19:47.326Z,101762.03
2023-04-04T08:22:13.760Z,101790.78
2023-04-04T08:24:40.380Z,101802.28
2023-04-04T08:27:06.822Z,101799.97
2023-04-04T08:29:34.129Z,101804.53
2023-04-04T08:32:00.939Z,101845.63
2023-04-04T08:34:27.346Z,101846.41
2023-04-04T08:36:54.022Z,101832.59
2023-04-04T08:39:20.515Z,101801.66
2023-04-04T08:41:46.988Z,101838.22
2023-04-04T08:44:17.260Z,101825.59
2023-04-04T08:46:45.925Z,101845.63
2023-04-04T08:49:13.000Z,101874.97
2023-04-04T08:51:39.903Z,101888.84
2023-04-04T08:54:06.774Z,101921.94
2023-04-04T08:56:35.227Z,101917.56
2023-04-04T08:59:01.717Z,101918.44
2023-04-04T09:01:29.818Z,101934.34
2023-04-04T09:03:59.255Z,101947.69
2023-04-04T09:06:25.890Z,101987.56
2023-04-04T09:08:54.063Z,101985.19
2023-04-04T09:11:21.099Z,101983.84
2023-04-04T09:13:47.448Z,101999.59
2023-04-04T09:16:13.956Z,101981.81
2023-04-04T09:18:40.400Z,101997.41
2023-04-04T09:21:11.127Z,102010.78
2023-04-04T09:23:37.643Z,102012.34
2023-04-04T09:26:04.898Z,102010.47
2023-04-04T09:28:31.993Z,102025.31
2023-04-04T09:31:01.156Z,101999.81
2023-04-04T09:33:27.542Z,101998.69
2023-04-04T09:35:58.718Z,101993.13
2023-04-04T09:38:26.405Z,101994.34
2023-04-04T09:40:53.282Z,102000.63
2023-04-04T09:43:22.164Z,102011.94
2023-04-04T09:45:50.283Z,102028.22
2023-04-04T09:48:27.430Z,102034.03
2023-04-04T09:50:54.008Z,102036.06
2023-04-04T09:53:20.561Z,102063.56
2023-04-04T09:55:51.284Z,102073.69
2023-04-04T09:58:19.337Z,102038.69
2023-04-04T10:00:48.261Z,102034.88
2023-04-04T10:03:15.326Z,102041.41
2023-04-04T10:05:41.938Z,102043.63
2023-04-04T10:08:15.945Z,102216.25
2023-04-04T10:11:02.628Z,102216.34
2023-04-04T10:13:36.602Z,102221.66
2023-04-04T10:16:04.137Z,102218.28
2023-04-04T10:18:34.647Z,102238.78
2023-04-04T10:21:14.565Z,102232.28
2023-04-04T10:23:42.767Z,102233.06
2023-04-04T10:26:09.841Z,102218.72
2023-04-04T10:28:36.795Z,102230.03
2023-04-04T10:31:08.834Z,102228.88
2023-04-04T10:34:09.318Z,102232.88
2023-04-04T10:36:44.528Z,102227.31
2023-04-04T10:39:31.405Z,102216.91
2023-04-04T10:41:58.828Z,102219.91
2023-04-04T10:44:37.732Z,102212.03
2023-04-04T10:47:19.627Z,102212.88
2023-04-04T10:49:46.618Z,102210.00
2023-04-04T10:52:17.600Z,102200.75
2023-04-04T10:54:44.883Z,102191.69
2023-04-04T10:57:12.581Z,102198.88
2023-04-04T11:00:08.282Z,102196.06
2023-04-04T11:02:53.189Z,102189.09
2023-04-04T11:05:22.830Z,102174.34
2023-04-04T11:10:32.514Z,102166.72
2023-04-04T11:13:12.959Z,102161.19
2023-04-04T11:16:07.957Z,102162.25
2023-04-04T11:18:41.570Z,102150.28
2023-04-04T11:21:09.233Z,102144.53
2023-04-04T11:23:59.012Z,102152.50
2023-04-04T11:26:28.378Z,102149.22
2023-04-04T11:29:01.514Z,102147.28
2023-04-04T11:31:29.870Z,102142.34
2023-04-04T11:34:05.993Z,102138.03
2023-04-04T11:36:35.660Z,102129.44
2023-04-04T11:39:30.531Z,102126.84
2023-04-04T11:42:10.201Z,102128.66
2023-04-04T11:45:02.799Z,102125.19
2023-04-04T11:47:30.200Z,102130.41
2023-04-04T11:49:56.792Z,102111.16
2023-04-04T11:52:25.984Z,102109.28
2023-04-04T11:54:52.820Z,102111.16
2023-04-04T11:57:19.824Z,102111.25
2023-04-04T11:59:47.576Z,102105.91
2023-04-04T12:02:17.061Z,102112.81
2023-04-04T12:04:46.457Z,102105.78
2023-04-04T12:07:13.831Z,102103.28
2023-04-04T12:09:40.622Z,102102.44
2023-04-04T12:12:07.607Z,102100.56
2023-04-04T12:14:34.180Z,102093.44
2023-04-04T12:17:01.732Z,102091.09
2023-04-04T12:19:28.501Z,102085.88
2023-04-04T12:21:54.894Z,102086.75
2023-04-04T12:24:22.332Z,102080.69
2023-04-04T12:26:50.016Z,102076.13
2023-04-04T12:29:16.545Z,102081.13
2023-04-04T12:31:44.837Z,102063.34
2023-04-04T12:34:18.982Z,102053.47
2023-04-04T12:36:49.207Z,102058.16
2023-04-04T12:39:16.389Z,102054.13
2023-04-04T12:41:52.850Z,102046.25
2023-04-04T12:44:32.973Z,102041.59
2023-04-04T12:47:00.456Z,102046.31
2023-04-04T12:49:40.615Z,102055.06
2023-04-04T12:52:07.847Z,102047.72
2023-04-04T12:54:36.134Z,102038.94
2023-04-04T12:57:04.519Z,102031.28
2023-04-04T12:59:35.793Z,102031.81
2023-04-04T13:02:03.201Z,102018.31
2023-04-04T13:04:29.625Z,102019.34
2023-04-04T13:06:56.185Z,102021.66
2023-04-04T13:09:25.801Z,102007.94
2023-04-04T13:12:03.001Z,102007.97
2023-04-04T13:14:48.678Z,102004.63
2023-04-04T13:17:15.735Z,102012.50
2023-04-04T13:19:42.101Z,102006.41
2023-04-04T13:22:08.613Z,102006.44
2023-04-04T13:24:35.002Z,101994.91
2023-04-04T13:27:01.795Z,101986.88
2023-04-04T13:29:28.155Z,101987.63
2023-04-04T13:31:54.756Z,101974.28
2023-04-04T13:34:21.929Z,101973.91
2023-04-04T13:36:48.304Z,101973.81
2023-04-04T13:39:15.114Z,101967.03
2023-04-04T13:41:41.505Z,101969.75
2023-04-04T13:44:07.851Z,101975.03
2023-04-04T13:46:34.448Z,101971.53
2023-04-04T13:49:01.725Z,101966.13
2023-04-04T13:51:28.113Z,101957.09
2023-04-04T13:53:54.474Z,101947.13
2023-04-04T13:56:22.141Z,101939.34
2023-04-04T13:58:50.760Z,101926.97
2023-04-04T14:01:17.173Z,101926.25
2023-04-04T14:03:43.566Z,101922.69
2023-04-04T14:06:11.071Z,101932.25
2023-04-04T14:08:38.216Z,101932.38
2023-04-04T14:11:04.672Z,101929.06
2023-04-04T14:13:32.544Z,101927.84
2023-04-04T14:15:59.133Z,101917.75
2023-04-04T14:18:25.676Z,101910.44
2023-04-04T14:20:52.018Z,101917.41
2023-04-04T14:23:18.404Z,101922.69
2023-04-04T14:25:45.081Z,101911.63
2023-04-04T14:28:11.859Z,101913.28
2023-04-04T14:30:38.411Z,101908.69
2023-04-04T14:33:04.774Z,101913.38
2023-04-04T14:35:31.161Z,101920.03
2023-04-04T14:37:57.703Z,101911.97
2023-04-04T14:40:24.072Z,101908.25
2023-04-04T14:42:50.546Z,101901.03
2023-04-04T14:45:17.644Z,101913.38
2023-04-04T14:47:44.245Z,101906.25
2023-04-04T14:50:10.761Z,101896.81
2023-04-04T14:52:37.197Z,101901.03
2023-04-04T14:55:03.912Z,101895.69
2023-04-04T14:57:32.107Z,101896.72
2023-04-04T15:00:02.159Z,101898.78
2023-04-04T15:02:28.793Z,101894.38
2023-04-04T15:04:55.252Z,101901.66
2023-04-04T15:07:24.203Z,101897.84
2023-04-04T15:09:50.616Z,101885.88
2023-04-04T15:12:17.073Z,101900.47
2023-04-04T15:14:43.464Z,101889.63
2023-04-04T15:17:09.859Z,101885.41
2023-04-04T15:19:36.969Z,101882.78
2023-04-04T15:22:04.628Z,101882.97
2023-04-04T15:24:30.966Z,101878.28
2023-04-04T15:26:57.831Z,101895.16
2023-04-04T15:29:24.348Z,101897.47
2023-04-04T15:31:50.839Z,101891.38
2023-04-04T15:34:17.216Z,101885.00
2023-04-04T15:36:44.403Z,101875.19
2023-04-04T15:39:13.932Z,101879.66
2023-04-04T15:41:40.895Z,101873.53
2023-04-04T15:44:07.421Z,101875.78
2023-04-04T15:46:33.877Z,101868.81
2023-04-04T15:49:01.062Z,101867.63
2023-04-04T15:51:29.005Z,101868.13
2023-04-04T15:53:56.092Z,101862.13
2023-04-04T15:56:22.512Z,101864.00
2023-04-04T15:58:49.220Z,101864.19
2023-04-04T16:01:15.800Z,101853.50
2023-04-04T16:03:42.756Z,101843.03
2023-04-04T16:06:12.899Z,101853.66
2023-04-04T16:08:40.721Z,101847.63
2023-04-04T16:11:07.089Z,101853.22
2023-04-04T16:13:33.771Z,101856.03
2023-04-04T16:16:00.240Z,101852.72
2023-04-04T16:18:27.223Z,101855.38
2023-04-04T16:20:53.637Z,101853.59
2023-04-04T16:23:20.010Z,101849.31
2023-04-04T16:25:46.909Z,101847.50
2023-04-04T16:28:13.281Z,101845.59
2023-04-04T16:30:39.850Z,101850.72
2023-04-04T16:33:06.785Z,101849.16
2023-04-04T16:35:33.214Z,101842.31
2023-04-04T16:37:59.605Z,101841.44
2023-04-04T16:40:26.213Z,101841.56
2023-04-04T16:42:52.584Z,101844.22
2023-04-04T16:45:18.916Z,101846.00
2023-04-04T16:47:45.330Z,101847.72
2023-04-04T16:50:12.049Z,101849.44
2023-04-04T16:52:38.371Z,101845.94
2023-04-04T16:55:05.328Z,101850.25
2023-04-04T16:57:31.904Z,101842.34
2023-04-04T16:59:58.338Z,101849.22
2023-04-04T17:02:24.745Z,101851.75
2023-04-04T17:04:51.281Z,101845.59
2023-04-04T17:07:17.758Z,101843.78
2023-04-04T17:09:45.942Z,101843.78
2023-04-04T17:12:13.518Z,101858.53
2023-04-04T17:14:39.950Z,101848.97
2023-04-04T17:17:06.321Z,101854.09
2023-04-04T17:19:34.777Z,101856.69
2023-04-04T17:22:01.796Z,101854.13
2023-04-04T17:24:28.167Z,101854.13
2023-04-04T17:26:56.809Z,101848.97
2023-04-04T17:29:26.699Z,101852.44
2023-04-04T17:31:54.591Z,101851.47
2023-04-04T17:34:21.035Z,101851.50
2023-04-04T17:36:47.705Z,101856.78
2023-04-04T17:39:14.445Z,101857.59
2023-04-04T17:41:40.988Z,101854.19
2023-04-04T17:44:07.353Z,101859.31
2023-04-04T17:46:33.800Z,101853.19
2023-04-04T17:49:01.188Z,101855.00
2023-04-04T17:51:28.549Z,101847.09
2023-04-04T17:53:54.912Z,101853.19
2023-04-04T17:56:21.943Z,101858.34
2023-04-04T17:58:48.383Z,101856.63
2023-04-04T18:01:14.925Z,101850.56
2023-04-04T18:03:41.368Z,101856.59
2023-04-04T18:06:08.556Z,101854.88
2023-04-04T18:08:34.933Z,101852.25
2023-04-04T18:11:01.358Z,101855.72
2023-04-04T18:13:27.842Z,101852.16
2023-04-04T18:15:54.266Z,101854.72
2023-04-04T18:18:21.312Z,101861.69
2023-04-04T18:20:48.236Z,101870.38
2023-04-04T18:23:16.504Z,101864.28
2023-04-04T18:25:43.080Z,101870.31
2023-04-04T18:28:09.500Z,101866.78
2023-04-04T18:30:37.456Z,101867.59
2023-04-04T18:33:04.336Z,101865.78
2023-04-04T18:35:30.869Z,101868.31
2023-04-04T18:37:57.261Z,101863.91
2023-04-04T18:40:23.716Z,101867.41
2023-04-04T18:42:50.176Z,101874.13
2023-04-04T18:45:17.404Z,101862.72
2023-04-04T18:47:44.755Z,101861.03
2023-04-04T18:50:12.024Z,101867.06
2023-04-04T18:52:38.467Z,101868.78
2023-04-04T18:55:05.271Z,101867.94
2023-04-04T18:57:33.266Z,101866.97
2023-04-04T18:59:59.740Z,101871.22
2023-04-04T19:02:27.193Z,101863.25
2023-04-04T19:04:55.064Z,101863.06
2023-04-04T19:07:24.395Z,101863.00
2023-04-04T19:09:51.598Z,101862.84
2023-04-04T19:12:18.120Z,101867.13
2023-04-04T19:14:44.502Z,101870.47
2023-04-04T19:17:15.390Z,101877.34
2023-04-04T19:19:43.207Z,101873.78
2023-04-04T19:22:09.638Z,101874.53
2023-04-04T19:24:36.206Z,101877.91
2023-04-04T19:27:03.215Z,101877.84
2023-04-04T19:29:31.994Z,101874.25
2023-04-04T19:31:58.435Z,101877.56
2023-04-04T19:34:24.773Z,101867.09
2023-04-04T19:36:51.133Z,101867.78
2023-04-04T19:39:18.738Z,101872.00
2023-04-04T19:41:45.421Z,101871.84
2023-04-04T19:44:19.625Z,101868.13
2023-04-04T19:46:46.914Z,101867.97
2023-04-04T19:49:13.864Z,101864.34
2023-04-04T19:51:48.658Z,101869.41
2023-04-04T19:54:15.367Z,101869.31
2023-04-04T19:56:41.996Z,101867.44
2023-04-04T19:59:10.682Z,101865.56
2023-04-04T20:01:40.538Z,101865.50
2023-04-04T20:04:11.400Z,101867.09
2023-04-04T20:06:38.749Z,101869.66
2023-04-04T20:09:10.247Z,101869.50
2023-04-04T20:11:36.732Z,101872.91
2023-04-04T20:14:06.083Z,101866.72
2023-04-04T20:16:33.293Z,101869.16
2023-04-04T20:19:00.689Z,101868.16
2023-04-04T20:21:31.534Z,101877.59
2023-04-04T20:24:10.708Z,101872.22
2023-04-04T20:26:51.249Z,101875.56
2023-04-04T20:29:21.906Z,101873.75
2023-04-04T20:31:50.990Z,101872.75
2023-04-04T20:34:41.133Z,101876.13
2023-04-04T20:37:09.213Z,101874.28
2023-04-04T20:39:41.590Z,101874.22
2023-04-04T20:42:14.428Z,101878.41
2023-04-04T20:44:41.021Z,101867.97
2023-04-04T20:47:07.625Z,101877.44
2023-04-04T20:49:33.982Z,101879.13
2023-04-04T20:52:00.307Z,101875.69
2023-04-04T20:54:26.653Z,101877.31
2023-04-04T20:56:55.203Z,101875.44
2023-04-04T20:59:31.937Z,101873.66
2023-04-04T21:02:24.758Z,101864.91
2023-04-04T21:04:51.836Z,101864.81
2023-04-04T21:07:40.170Z,101864.72
2023-04-04T21:10:19.812Z,101871.53
2023-04-04T21:12:46.204Z,101872.19
2023-04-04T21:15:38.477Z,101871.25
2023-04-04T21:18:09.134Z,101872.09
2023-04-04T21:20:47.680Z,101866.88
2023-04-04T21:23:20.500Z,101863.28
2023-04-04T21:25:46.845Z,101874.44
2023-04-04T21:28:13.207Z,101877.94
2023-04-04T21:30:44.095Z,101863.16
2023-04-04T21:33:16.546Z,101862.19
2023-04-04T21:35:48.851Z,101858.50
2023-04-04T21:38:31.550Z,101854.09
2023-04-04T21:41:01.988Z,101851.34
2023-04-04T21:43:28.427Z,101848.69
2023-04-04T21:45:55.912Z,101845.94
2023-04-04T21:48:25.917Z,101841.41
2023-04-04T21:50:52.286Z,101840.44
2023-04-04T21:53:18.701Z,101835.22
2023-04-04T21:55:45.505Z,101831.69
2023-04-04T21:58:12.587Z,101834.06
2023-04-04T22:00:39.474Z,101834.78
2023-04-04T22:03:06.439Z,101835.63
2023-04-04T22:05:38.853Z,101836.56
2023-04-04T22:08:06.002Z,101847.59
2023-04-04T22:10:33.180Z,101839.69
2023-04-04T22:12:59.579Z,101834.47
2023-04-04T22:15:29.527Z,101829.09
2023-04-04T22:18:03.661Z,101827.31
2023-04-04T22:20:32.028Z,101820.19
2023-04-04T22:22:59.159Z,101821.94
2023-04-04T22:25:26.499Z,101812.50
2023-04-04T22:27:53.637Z,101816.81
2023-04-04T22:30:20.017Z,101821.88
2023-04-04T22:32:46.646Z,101823.44
2023-04-04T22:35:13.110Z,101820.72
2023-04-04T22:37:41.458Z,101821.41
2023-04-04T22:40:11.748Z,101817.94
2023-04-04T22:42:38.176Z,101817.72
2023-04-04T22:45:04.864Z,101817.72
2023-04-04T22:47:31.407Z,101810.81
2023-04-04T22:49:58.349Z,101821.03
2023-04-04T22:52:26.416Z,101822.72
2023-04-04T22:54:53.374Z,101820.09
2023-04-04T22:57:19.720Z,101822.63
2023-04-04T22:59:46.071Z,101825.03
2023-04-04T23:02:12.684Z,101814.66
2023-04-04T23:04:39.106Z,101813.72
2023-04-04T23:07:05.483Z,101811.97
2023-04-04T23:09:32.390Z,101811.97
2023-04-04T23:11:58.736Z,101808.44
2023-04-04T23:14:30.506Z,101796.31
2023-04-04T23:16:57.477Z,101796.09
2023-04-04T23:19:23.808Z,101796.03
2023-04-04T23:21:50.210Z,101797.78
2023-04-04T23:24:16.779Z,101805.53
2023-04-04T23:26:43.122Z,101799.41
2023-04-04T23:29:09.768Z,101794.19
2023-04-04T23:31:36.591Z,101797.50
2023-04-04T23:34:03.059Z,101793.97
2023-04-04T23:36:29.497Z,101797.50
2023-04-04T23:38:56.077Z,101792.34
2023-04-04T23:41:23.228Z,101789.69
2023-04-04T23:43:49.562Z,101792.22
2023-04-04T23:46:16.155Z,101792.91
2023-04-04T23:48:42.600Z,101788.53
2023-04-04T23:51:10.811Z,101785.03
2023-04-04T23:53:37.387Z,101784.09
2023-04-04T23:56:03.809Z,101786.50
2023-04-04T23:58:30.536Z,101783.94
